sensor_id;sensor_type;location;lat;lon;timestamp;temperature;humidity
23271;DHT22;11804;51.118;17.058;2023-05-29T00:01:11;13.80;88.00
23271;DHT22;11804;51.118;17.058;2023-05-29T00:03:38;13.80;89.70
23271;DHT22;11804;51.118;17.058;2023-05-29T00:06:06;13.80;90.00
23271;DHT22;11804;51.118;17.058;2023-05-29T00:08:34;13.90;87.80
23271;DHT22;11804;51.118;17.058;2023-05-29T00:11:02;13.90;89.30
23271;DHT22;11804;51.118;17.058;2023-05-29T00:13:29;14.00;91.00
23271;DHT22;11804;51.118;17.058;2023-05-29T00:15:57;13.90;91.90
23271;DHT22;11804;51.118;17.058;2023-05-29T00:18:26;13.90;90.50
23271;DHT22;11804;51.118;17.058;2023-05-29T00:20:54;13.90;92.50
23271;DHT22;11804;51.118;17.058;2023-05-29T00:23:22;13.90;91.80
23271;DHT22;11804;51.118;17.058;2023-05-29T00:25:49;13.80;92.10
23271;DHT22;11804;51.118;17.058;2023-05-29T00:28:17;13.80;92.20
23271;DHT22;11804;51.118;17.058;2023-05-29T00:30:44;13.80;92.70
23271;DHT22;11804;51.118;17.058;2023-05-29T00:35:44;13.80;94.60
23271;DHT22;11804;51.118;17.058;2023-05-29T00:38:17;13.70;94.70
23271;DHT22;11804;51.118;17.058;2023-05-29T00:40:49;13.70;94.20
23271;DHT22;11804;51.118;17.058;2023-05-29T00:43:14;13.70;94.90
23271;DHT22;11804;51.118;17.058;2023-05-29T00:45:41;13.60;97.20
23271;DHT22;11804;51.118;17.058;2023-05-29T00:48:09;13.50;98.40
23271;DHT22;11804;51.118;17.058;2023-05-29T00:50:37;13.50;95.80
23271;DHT22;11804;51.118;17.058;2023-05-29T00:53:05;13.50;96.20
23271;DHT22;11804;51.118;17.058;2023-05-29T00:55:35;13.50;96.40
23271;DHT22;11804;51.118;17.058;2023-05-29T00:58:03;13.50;98.60
23271;DHT22;11804;51.118;17.058;2023-05-29T01:00:31;13.50;98.90
23271;DHT22;11804;51.118;17.058;2023-05-29T01:03:03;13.50;99.00
23271;DHT22;11804;51.118;17.058;2023-05-29T01:05:33;13.40;99.90
23271;DHT22;11804;51.118;17.058;2023-05-29T01:08:03;13.40;99.90
23271;DHT22;11804;51.118;17.058;2023-05-29T01:10:30;13.40;99.90
23271;DHT22;11804;51.118;17.058;2023-05-29T01:15:55;13.30;99.90
23271;DHT22;11804;51.118;17.058;2023-05-29T01:21:00;13.30;99.90
23271;DHT22;11804;51.118;17.058;2023-05-29T01:23:37;13.30;99.90
23271;DHT22;11804;51.118;17.058;2023-05-29T01:26:10;13.30;99.90
23271;DHT22;11804;51.118;17.058;2023-05-29T01:28:47;13.30;99.90
23271;DHT22;11804;51.118;17.058;2023-05-29T01:31:23;13.30;99.90
23271;DHT22;11804;51.118;17.058;2023-05-29T01:33:56;13.30;99.90
23271;DHT22;11804;51.118;17.058;2023-05-29T01:36:25;13.30;99.90
23271;DHT22;11804;51.118;17.058;2023-05-29T01:38:55;13.20;99.90
23271;DHT22;11804;51.118;17.058;2023-05-29T01:41:24;13.20;99.90
23271;DHT22;11804;51.118;17.058;2023-05-29T01:43:53;13.20;99.90
23271;DHT22;11804;51.118;17.058;2023-05-29T01:46:22;13.20;99.90
23271;DHT22;11804;51.118;17.058;2023-05-29T01:48:52;13.20;99.90
23271;DHT22;11804;51.118;17.058;2023-05-29T01:51:22;13.20;99.90
23271;DHT22;11804;51.118;17.058;2023-05-29T01:53:51;13.10;99.90
23271;DHT22;11804;51.118;17.058;2023-05-29T01:56:19;13.10;99.90
23271;DHT22;11804;51.118;17.058;2023-05-29T01:58:48;13.20;99.90
23271;DHT22;11804;51.118;17.058;2023-05-29T02:01:17;13.20;99.90
23271;DHT22;11804;51.118;17.058;2023-05-29T02:03:48;13.10;99.90
23271;DHT22;11804;51.118;17.058;2023-05-29T02:06:14;13.00;99.90
23271;DHT22;11804;51.118;17.058;2023-05-29T02:08:42;12.90;99.90
23271;DHT22;11804;51.118;17.058;2023-05-29T02:11:09;12.80;99.90
23271;DHT22;11804;51.118;17.058;2023-05-29T02:13:37;12.70;99.90
23271;DHT22;11804;51.118;17.058;2023-05-29T02:16:06;12.70;99.90
23271;DHT22;11804;51.118;17.058;2023-05-29T02:18:35;12.60;99.90
23271;DHT22;11804;51.118;17.058;2023-05-29T02:21:03;12.50;99.90
23271;DHT22;11804;51.118;17.058;2023-05-29T02:23:30;12.30;99.90
23271;DHT22;11804;51.118;17.058;2023-05-29T02:25:58;12.30;99.90
23271;DHT22;11804;51.118;17.058;2023-05-29T02:28:25;12.30;99.90
23271;DHT22;11804;51.118;17.058;2023-05-29T02:30:53;12.30;99.90
23271;DHT22;11804;51.118;17.058;2023-05-29T02:33:21;12.40;99.90
23271;DHT22;11804;51.118;17.058;2023-05-29T02:35:49;12.50;99.90
23271;DHT22;11804;51.118;17.058;2023-05-29T02:38:17;12.50;99.90
23271;DHT22;11804;51.118;17.058;2023-05-29T02:40:45;12.30;99.90
23271;DHT22;11804;51.118;17.058;2023-05-29T02:43:13;12.10;99.90
23271;DHT22;11804;51.118;17.058;2023-05-29T02:45:41;11.70;99.90
23271;DHT22;11804;51.118;17.058;2023-05-29T02:48:08;11.50;99.90
23271;DHT22;11804;51.118;17.058;2023-05-29T02:50:36;11.60;99.90
23271;DHT22;11804;51.118;17.058;2023-05-29T02:53:04;11.90;99.90
23271;DHT22;11804;51.118;17.058;2023-05-29T02:55:32;12.00;99.90
23271;DHT22;11804;51.118;17.058;2023-05-29T02:58:01;12.10;99.90
23271;DHT22;11804;51.118;17.058;2023-05-29T03:00:29;12.10;99.90
23271;DHT22;11804;51.118;17.058;2023-05-29T03:02:56;12.20;99.90
23271;DHT22;11804;51.118;17.058;2023-05-29T03:05:24;12.30;99.90
23271;DHT22;11804;51.118;17.058;2023-05-29T03:07:52;12.30;99.90
23271;DHT22;11804;51.118;17.058;2023-05-29T03:10:20;12.10;99.90
23271;DHT22;11804;51.118;17.058;2023-05-29T03:12:48;12.00;99.90
23271;DHT22;11804;51.118;17.058;2023-05-29T03:15:16;12.00;99.90
23271;DHT22;11804;51.118;17.058;2023-05-29T03:17:45;12.10;99.90
23271;DHT22;11804;51.118;17.058;2023-05-29T03:20:13;12.30;99.90
23271;DHT22;11804;51.118;17.058;2023-05-29T03:22:42;12.70;99.90
23271;DHT22;11804;51.118;17.058;2023-05-29T03:25:09;13.20;99.90
23271;DHT22;11804;51.118;17.058;2023-05-29T03:27:37;13.40;99.90
23271;DHT22;11804;51.118;17.058;2023-05-29T03:30:06;13.90;99.90
23271;DHT22;11804;51.118;17.058;2023-05-29T03:32:34;14.00;99.90
23271;DHT22;11804;51.118;17.058;2023-05-29T03:35:01;14.00;99.90
23271;DHT22;11804;51.118;17.058;2023-05-29T03:37:30;13.70;99.90
23271;DHT22;11804;51.118;17.058;2023-05-29T03:39:58;13.30;99.90
23271;DHT22;11804;51.118;17.058;2023-05-29T03:42:25;12.90;99.90
23271;DHT22;11804;51.118;17.058;2023-05-29T03:44:53;12.70;99.90
23271;DHT22;11804;51.118;17.058;2023-05-29T03:47:20;12.80;99.90
23271;DHT22;11804;51.118;17.058;2023-05-29T03:49:48;13.10;99.90
23271;DHT22;11804;51.118;17.058;2023-05-29T03:52:16;13.40;99.90
23271;DHT22;11804;51.118;17.058;2023-05-29T03:54:45;13.60;99.90
23271;DHT22;11804;51.118;17.058;2023-05-29T03:57:14;13.80;99.90
23271;DHT22;11804;51.118;17.058;2023-05-29T03:59:42;14.40;99.90
23271;DHT22;11804;51.118;17.058;2023-05-29T04:02:11;15.20;96.50
23271;DHT22;11804;51.118;17.058;2023-05-29T04:04:39;16.40;89.00
23271;DHT22;11804;51.118;17.058;2023-05-29T04:07:06;16.90;82.10
23271;DHT22;11804;51.118;17.058;2023-05-29T04:09:34;17.90;75.30
23271;DHT22;11804;51.118;17.058;2023-05-29T04:12:02;19.00;65.20
23271;DHT22;11804;51.118;17.058;2023-05-29T04:14:32;18.60;64.20
23271;DHT22;11804;51.118;17.058;2023-05-29T04:16:59;18.60;64.40
23271;DHT22;11804;51.118;17.058;2023-05-29T04:19:27;19.10;62.00
23271;DHT22;11804;51.118;17.058;2023-05-29T04:21:55;19.10;61.10
23271;DHT22;11804;51.118;17.058;2023-05-29T04:24:23;19.50;59.20
23271;DHT22;11804;51.118;17.058;2023-05-29T04:26:51;19.90;57.60
23271;DHT22;11804;51.118;17.058;2023-05-29T04:29:19;20.20;55.80
23271;DHT22;11804;51.118;17.058;2023-05-29T04:31:46;20.50;54.40
23271;DHT22;11804;51.118;17.058;2023-05-29T04:34:14;21.30;50.90
23271;DHT22;11804;51.118;17.058;2023-05-29T04:36:43;21.40;50.20
23271;DHT22;11804;51.118;17.058;2023-05-29T04:39:12;21.50;48.90
23271;DHT22;11804;51.118;17.058;2023-05-29T04:41:41;21.40;49.10
23271;DHT22;11804;51.118;17.058;2023-05-29T04:44:09;21.60;48.90
23271;DHT22;11804;51.118;17.058;2023-05-29T04:46:38;22.40;46.10
23271;DHT22;11804;51.118;17.058;2023-05-29T04:49:06;22.70;45.60
23271;DHT22;11804;51.118;17.058;2023-05-29T04:51:34;22.70;45.30
23271;DHT22;11804;51.118;17.058;2023-05-29T04:54:03;22.40;46.50
23271;DHT22;11804;51.118;17.058;2023-05-29T04:56:30;23.20;44.30
23271;DHT22;11804;51.118;17.058;2023-05-29T04:58:58;23.70;42.80
23271;DHT22;11804;51.118;17.058;2023-05-29T05:01:25;23.50;43.60
23271;DHT22;11804;51.118;17.058;2023-05-29T05:03:53;23.40;43.20
23271;DHT22;11804;51.118;17.058;2023-05-29T05:06:22;23.40;43.30
23271;DHT22;11804;51.118;17.058;2023-05-29T05:08:52;23.70;42.60
23271;DHT22;11804;51.118;17.058;2023-05-29T05:11:23;24.50;41.10
23271;DHT22;11804;51.118;17.058;2023-05-29T05:13:51;24.90;39.80
23271;DHT22;11804;51.118;17.058;2023-05-29T05:16:19;24.70;39.70
23271;DHT22;11804;51.118;17.058;2023-05-29T05:18:46;24.40;40.90
23271;DHT22;11804;51.118;17.058;2023-05-29T05:21:14;24.80;40.20
23271;DHT22;11804;51.118;17.058;2023-05-29T05:23:42;24.70;39.80
23271;DHT22;11804;51.118;17.058;2023-05-29T05:26:10;25.10;38.70
23271;DHT22;11804;51.118;17.058;2023-05-29T05:28:37;25.70;37.50
23271;DHT22;11804;51.118;17.058;2023-05-29T05:31:05;26.80;34.00
23271;DHT22;11804;51.118;17.058;2023-05-29T05:33:32;27.80;33.10
23271;DHT22;11804;51.118;17.058;2023-05-29T05:36:00;28.70;30.20
23271;DHT22;11804;51.118;17.058;2023-05-29T05:38:28;29.20;29.90
23271;DHT22;11804;51.118;17.058;2023-05-29T05:40:55;28.50;30.00
23271;DHT22;11804;51.118;17.058;2023-05-29T05:43:23;28.80;29.80
23271;DHT22;11804;51.118;17.058;2023-05-29T05:45:52;27.20;31.80
23271;DHT22;11804;51.118;17.058;2023-05-29T05:48:20;26.30;34.00
23271;DHT22;11804;51.118;17.058;2023-05-29T05:50:49;26.50;33.90
23271;DHT22;11804;51.118;17.058;2023-05-29T05:53:17;26.60;35.00
23271;DHT22;11804;51.118;17.058;2023-05-29T05:55:44;27.50;32.70
23271;DHT22;11804;51.118;17.058;2023-05-29T05:58:12;27.50;33.00
23271;DHT22;11804;51.118;17.058;2023-05-29T06:00:40;28.00;33.30
23271;DHT22;11804;51.118;17.058;2023-05-29T06:03:09;28.10;32.50
23271;DHT22;11804;51.118;17.058;2023-05-29T06:05:38;28.50;31.80
23271;DHT22;11804;51.118;17.058;2023-05-29T06:08:07;27.90;32.20
23271;DHT22;11804;51.118;17.058;2023-05-29T06:10:35;27.40;32.90
23271;DHT22;11804;51.118;17.058;2023-05-29T06:13:03;27.80;32.10
23271;DHT22;11804;51.118;17.058;2023-05-29T06:15:31;28.30;32.00
23271;DHT22;11804;51.118;17.058;2023-05-29T06:18:01;28.80;30.70
23271;DHT22;11804;51.118;17.058;2023-05-29T06:20:29;28.10;31.90
23271;DHT22;11804;51.118;17.058;2023-05-29T06:22:57;28.90;30.70
23271;DHT22;11804;51.118;17.058;2023-05-29T06:25:24;28.60;30.80
23271;DHT22;11804;51.118;17.058;2023-05-29T06:27:57;28.30;31.20
23271;DHT22;11804;51.118;17.058;2023-05-29T06:30:24;28.10;31.70
23271;DHT22;11804;51.118;17.058;2023-05-29T06:32:52;27.70;31.40
23271;DHT22;11804;51.118;17.058;2023-05-29T06:35:19;28.80;31.10
23271;DHT22;11804;51.118;17.058;2023-05-29T06:37:47;29.50;29.90
23271;DHT22;11804;51.118;17.058;2023-05-29T06:40:15;30.40;29.00
23271;DHT22;11804;51.118;17.058;2023-05-29T06:42:43;31.10;28.20
23271;DHT22;11804;51.118;17.058;2023-05-29T06:45:13;30.30;28.90
23271;DHT22;11804;51.118;17.058;2023-05-29T06:47:42;29.50;30.00
23271;DHT22;11804;51.118;17.058;2023-05-29T06:50:10;29.30;30.90
23271;DHT22;11804;51.118;17.058;2023-05-29T06:52:38;30.20;29.30
23271;DHT22;11804;51.118;17.058;2023-05-29T06:55:07;31.40;28.30
23271;DHT22;11804;51.118;17.058;2023-05-29T06:57:34;30.50;29.20
23271;DHT22;11804;51.118;17.058;2023-05-29T07:00:04;30.40;29.10
23271;DHT22;11804;51.118;17.058;2023-05-29T07:02:32;30.30;29.50
23271;DHT22;11804;51.118;17.058;2023-05-29T07:05:00;30.40;29.00
23271;DHT22;11804;51.118;17.058;2023-05-29T07:07:27;29.80;30.00
23271;DHT22;11804;51.118;17.058;2023-05-29T07:09:55;30.00;29.50
23271;DHT22;11804;51.118;17.058;2023-05-29T07:12:23;29.90;29.90
23271;DHT22;11804;51.118;17.058;2023-05-29T07:14:50;31.00;28.40
23271;DHT22;11804;51.118;17.058;2023-05-29T07:17:18;30.20;29.60
23271;DHT22;11804;51.118;17.058;2023-05-29T07:19:46;29.90;29.70
23271;DHT22;11804;51.118;17.058;2023-05-29T07:22:16;30.00;30.00
23271;DHT22;11804;51.118;17.058;2023-05-29T07:24:44;30.10;29.50
23271;DHT22;11804;51.118;17.058;2023-05-29T07:27:12;30.60;29.00
23271;DHT22;11804;51.118;17.058;2023-05-29T07:29:40;31.20;28.70
23271;DHT22;11804;51.118;17.058;2023-05-29T07:32:09;32.50;27.40
23271;DHT22;11804;51.118;17.058;2023-05-29T07:34:37;31.90;27.90
23271;DHT22;11804;51.118;17.058;2023-05-29T07:37:05;32.20;27.60
23271;DHT22;11804;51.118;17.058;2023-05-29T07:39:34;32.90;26.20
23271;DHT22;11804;51.118;17.058;2023-05-29T07:42:03;32.30;27.10
23271;DHT22;11804;51.118;17.058;2023-05-29T07:44:32;31.30;27.90
23271;DHT22;11804;51.118;17.058;2023-05-29T07:46:59;31.90;27.20
23271;DHT22;11804;51.118;17.058;2023-05-29T07:49:27;31.00;26.90
23271;DHT22;11804;51.118;17.058;2023-05-29T07:51:55;30.90;27.80
23271;DHT22;11804;51.118;17.058;2023-05-29T07:54:22;31.70;27.60
23271;DHT22;11804;51.118;17.058;2023-05-29T07:56:50;31.90;25.40
23271;DHT22;11804;51.118;17.058;2023-05-29T07:59:17;32.10;25.80
23271;DHT22;11804;51.118;17.058;2023-05-29T08:01:45;31.80;25.70
23271;DHT22;11804;51.118;17.058;2023-05-29T08:04:13;32.20;26.00
23271;DHT22;11804;51.118;17.058;2023-05-29T08:06:42;33.30;24.90
23271;DHT22;11804;51.118;17.058;2023-05-29T08:09:11;29.10;27.30
23271;DHT22;11804;51.118;17.058;2023-05-29T08:11:38;27.50;29.20
23271;DHT22;11804;51.118;17.058;2023-05-29T08:14:06;28.00;29.50
23271;DHT22;11804;51.118;17.058;2023-05-29T08:16:33;29.60;28.40
23271;DHT22;11804;51.118;17.058;2023-05-29T08:19:01;30.40;27.70
23271;DHT22;11804;51.118;17.058;2023-05-29T08:21:30;30.40;25.30
23271;DHT22;11804;51.118;17.058;2023-05-29T08:24:02;29.60;25.90
23271;DHT22;11804;51.118;17.058;2023-05-29T08:26:31;28.30;27.70
23271;DHT22;11804;51.118;17.058;2023-05-29T08:28:59;29.10;27.90
23271;DHT22;11804;51.118;17.058;2023-05-29T08:31:27;29.30;25.80
23271;DHT22;11804;51.118;17.058;2023-05-29T08:33:56;30.10;25.10
23271;DHT22;11804;51.118;17.058;2023-05-29T08:36:24;29.20;24.10
23271;DHT22;11804;51.118;17.058;2023-05-29T08:38:52;29.00;25.30
23271;DHT22;11804;51.118;17.058;2023-05-29T08:41:28;28.50;25.80
23271;DHT22;11804;51.118;17.058;2023-05-29T08:43:59;27.80;25.20
23271;DHT22;11804;51.118;17.058;2023-05-29T08:46:27;27.70;26.00
23271;DHT22;11804;51.118;17.058;2023-05-29T08:48:57;28.30;25.90
23271;DHT22;11804;51.118;17.058;2023-05-29T08:51:27;29.40;24.70
23271;DHT22;11804;51.118;17.058;2023-05-29T08:53:58;29.70;24.60
23271;DHT22;11804;51.118;17.058;2023-05-29T08:56:26;29.90;24.90
23271;DHT22;11804;51.118;17.058;2023-05-29T08:58:54;30.10;24.70
23271;DHT22;11804;51.118;17.058;2023-05-29T09:01:25;30.20;24.10
23271;DHT22;11804;51.118;17.058;2023-05-29T09:03:54;30.10;24.30
23271;DHT22;11804;51.118;17.058;2023-05-29T09:06:23;30.40;24.30
23271;DHT22;11804;51.118;17.058;2023-05-29T09:08:52;29.70;24.20
23271;DHT22;11804;51.118;17.058;2023-05-29T09:11:20;30.00;24.60
23271;DHT22;11804;51.118;17.058;2023-05-29T09:13:48;30.50;24.70
23271;DHT22;11804;51.118;17.058;2023-05-29T09:16:19;30.60;24.90
23271;DHT22;11804;51.118;17.058;2023-05-29T09:18:47;31.10;24.50
23271;DHT22;11804;51.118;17.058;2023-05-29T09:21:26;30.60;24.10
23271;DHT22;11804;51.118;17.058;2023-05-29T09:23:58;29.60;25.00
23271;DHT22;11804;51.118;17.058;2023-05-29T09:26:24;30.30;25.30
23271;DHT22;11804;51.118;17.058;2023-05-29T09:28:52;30.50;25.10
23271;DHT22;11804;51.118;17.058;2023-05-29T09:31:19;30.30;25.40
23271;DHT22;11804;51.118;17.058;2023-05-29T09:33:49;30.20;25.70
23271;DHT22;11804;51.118;17.058;2023-05-29T09:36:21;30.10;25.40
23271;DHT22;11804;51.118;17.058;2023-05-29T09:38:49;30.40;25.50
23271;DHT22;11804;51.118;17.058;2023-05-29T09:41:22;30.40;26.10
23271;DHT22;11804;51.118;17.058;2023-05-29T09:43:50;30.70;24.90
23271;DHT22;11804;51.118;17.058;2023-05-29T09:46:20;29.90;25.10
23271;DHT22;11804;51.118;17.058;2023-05-29T09:48:48;28.40;26.90
23271;DHT22;11804;51.118;17.058;2023-05-29T09:51:23;29.00;26.90
23271;DHT22;11804;51.118;17.058;2023-05-29T09:53:51;30.00;26.00
23271;DHT22;11804;51.118;17.058;2023-05-29T09:56:22;29.20;26.50
23271;DHT22;11804;51.118;17.058;2023-05-29T09:58:52;29.00;26.80
23271;DHT22;11804;51.118;17.058;2023-05-29T10:01:22;29.10;27.30
23271;DHT22;11804;51.118;17.058;2023-05-29T10:03:51;29.40;26.60
23271;DHT22;11804;51.118;17.058;2023-05-29T10:06:19;29.60;26.10
23271;DHT22;11804;51.118;17.058;2023-05-29T10:08:48;29.20;26.70
23271;DHT22;11804;51.118;17.058;2023-05-29T10:11:23;29.10;26.90
23271;DHT22;11804;51.118;17.058;2023-05-29T10:13:53;29.10;27.30
23271;DHT22;11804;51.118;17.058;2023-05-29T10:16:23;29.20;27.40
23271;DHT22;11804;51.118;17.058;2023-05-29T10:18:56;29.20;27.10
23271;DHT22;11804;51.118;17.058;2023-05-29T10:21:26;29.40;27.80
23271;DHT22;11804;51.118;17.058;2023-05-29T10:23:55;29.60;26.80
23271;DHT22;11804;51.118;17.058;2023-05-29T10:26:27;29.10;27.20
23271;DHT22;11804;51.118;17.058;2023-05-29T10:29:15;29.10;27.60
23271;DHT22;11804;51.118;17.058;2023-05-29T10:32:03;29.60;28.10
23271;DHT22;11804;51.118;17.058;2023-05-29T10:37:16;30.00;26.50
23271;DHT22;11804;51.118;17.058;2023-05-29T10:39:40;29.60;27.10
23271;DHT22;11804;51.118;17.058;2023-05-29T10:45:08;27.90;28.70
23271;DHT22;11804;51.118;17.058;2023-05-29T10:47:38;27.40;29.70
23271;DHT22;11804;51.118;17.058;2023-05-29T10:50:06;27.50;29.80
23271;DHT22;11804;51.118;17.058;2023-05-29T10:52:34;27.60;29.30
23271;DHT22;11804;51.118;17.058;2023-05-29T10:55:02;27.50;28.70
23271;DHT22;11804;51.118;17.058;2023-05-29T10:57:31;27.30;28.60
23271;DHT22;11804;51.118;17.058;2023-05-29T11:00:05;27.30;28.60
23271;DHT22;11804;51.118;17.058;2023-05-29T11:02:39;27.10;29.00
23271;DHT22;11804;51.118;17.058;2023-05-29T11:05:18;27.10;29.10
23271;DHT22;11804;51.118;17.058;2023-05-29T11:07:57;27.00;29.00
23271;DHT22;11804;51.118;17.058;2023-05-29T11:10:55;26.90;29.40
23271;DHT22;11804;51.118;17.058;2023-05-29T11:13:30;26.70;29.70
23271;DHT22;11804;51.118;17.058;2023-05-29T11:18:43;26.40;30.10
23271;DHT22;11804;51.118;17.058;2023-05-29T11:24:05;26.20;29.40
23271;DHT22;11804;51.118;17.058;2023-05-29T11:26:33;26.10;29.20
23271;DHT22;11804;51.118;17.058;2023-05-29T11:29:03;25.80;29.40
23271;DHT22;11804;51.118;17.058;2023-05-29T11:31:34;25.20;29.90
23271;DHT22;11804;51.118;17.058;2023-05-29T11:34:03;24.40;31.40
23271;DHT22;11804;51.118;17.058;2023-05-29T11:36:33;23.80;32.30
23271;DHT22;11804;51.118;17.058;2023-05-29T11:39:01;24.10;33.40
23271;DHT22;11804;51.118;17.058;2023-05-29T11:41:30;24.70;32.40
23271;DHT22;11804;51.118;17.058;2023-05-29T11:44:02;25.30;32.00
23271;DHT22;11804;51.118;17.058;2023-05-29T11:46:32;25.50;31.50
23271;DHT22;11804;51.118;17.058;2023-05-29T11:49:01;25.70;30.60
23271;DHT22;11804;51.118;17.058;2023-05-29T11:51:29;25.60;30.30
23271;DHT22;11804;51.118;17.058;2023-05-29T11:53:56;25.60;30.10
23271;DHT22;11804;51.118;17.058;2023-05-29T11:56:30;25.50;30.60
23271;DHT22;11804;51.118;17.058;2023-05-29T11:58:58;25.50;31.20
23271;DHT22;11804;51.118;17.058;2023-05-29T12:01:27;25.70;31.20
23271;DHT22;11804;51.118;17.058;2023-05-29T12:03:55;25.50;29.90
23271;DHT22;11804;51.118;17.058;2023-05-29T12:06:38;25.30;30.50
23271;DHT22;11804;51.118;17.058;2023-05-29T12:09:05;25.40;31.40
23271;DHT22;11804;51.118;17.058;2023-05-29T12:11:34;25.70;30.90
23271;DHT22;11804;51.118;17.058;2023-05-29T12:14:02;25.70;30.80
23271;DHT22;11804;51.118;17.058;2023-05-29T12:16:34;25.70;30.70
23271;DHT22;11804;51.118;17.058;2023-05-29T12:19:02;25.70;30.40
23271;DHT22;11804;51.118;17.058;2023-05-29T12:21:29;25.70;30.70
23271;DHT22;11804;51.118;17.058;2023-05-29T12:23:58;25.50;30.90
23271;DHT22;11804;51.118;17.058;2023-05-29T12:26:26;25.40;32.00
23271;DHT22;11804;51.118;17.058;2023-05-29T12:28:55;25.40;31.30
23271;DHT22;11804;51.118;17.058;2023-05-29T12:31:29;25.30;31.70
23271;DHT22;11804;51.118;17.058;2023-05-29T12:34:08;25.10;31.80
23271;DHT22;11804;51.118;17.058;2023-05-29T12:36:39;24.90;31.20
23271;DHT22;11804;51.118;17.058;2023-05-29T12:39:07;25.10;31.20
23271;DHT22;11804;51.118;17.058;2023-05-29T12:41:36;25.20;31.70
23271;DHT22;11804;51.118;17.058;2023-05-29T12:44:06;25.40;31.30
23271;DHT22;11804;51.118;17.058;2023-05-29T12:46:42;25.40;31.50
23271;DHT22;11804;51.118;17.058;2023-05-29T12:49:17;25.50;30.40
23271;DHT22;11804;51.118;17.058;2023-05-29T12:51:49;25.40;30.50
23271;DHT22;11804;51.118;17.058;2023-05-29T12:54:19;25.40;30.80
23271;DHT22;11804;51.118;17.058;2023-05-29T12:56:46;25.30;30.40
23271;DHT22;11804;51.118;17.058;2023-05-29T12:59:15;25.40;30.80
23271;DHT22;11804;51.118;17.058;2023-05-29T13:01:43;25.40;30.50
23271;DHT22;11804;51.118;17.058;2023-05-29T13:04:11;25.30;30.40
23271;DHT22;11804;51.118;17.058;2023-05-29T13:06:39;25.50;30.90
23271;DHT22;11804;51.118;17.058;2023-05-29T13:09:06;25.50;30.60
23271;DHT22;11804;51.118;17.058;2023-05-29T13:11:35;25.30;31.20
23271;DHT22;11804;51.118;17.058;2023-05-29T13:14:03;25.00;30.50
23271;DHT22;11804;51.118;17.058;2023-05-29T13:16:30;25.00;31.50
23271;DHT22;11804;51.118;17.058;2023-05-29T13:18:58;25.10;31.10
23271;DHT22;11804;51.118;17.058;2023-05-29T13:21:26;25.30;30.70
23271;DHT22;11804;51.118;17.058;2023-05-29T13:23:53;25.40;30.00
23271;DHT22;11804;51.118;17.058;2023-05-29T13:26:21;25.20;30.00
23271;DHT22;11804;51.118;17.058;2023-05-29T13:28:49;25.10;30.70
23271;DHT22;11804;51.118;17.058;2023-05-29T13:31:18;24.90;30.80
23271;DHT22;11804;51.118;17.058;2023-05-29T13:33:47;24.90;31.20
23271;DHT22;11804;51.118;17.058;2023-05-29T13:36:15;24.40;30.60
23271;DHT22;11804;51.118;17.058;2023-05-29T13:38:42;24.00;32.30
23271;DHT22;11804;51.118;17.058;2023-05-29T13:41:10;24.30;32.20
23271;DHT22;11804;51.118;17.058;2023-05-29T13:43:38;24.50;30.90
23271;DHT22;11804;51.118;17.058;2023-05-29T13:46:07;24.70;30.40
23271;DHT22;11804;51.118;17.058;2023-05-29T13:48:35;25.10;30.00
23271;DHT22;11804;51.118;17.058;2023-05-29T13:51:02;25.00;30.60
23271;DHT22;11804;51.118;17.058;2023-05-29T13:53:30;24.90;31.10
23271;DHT22;11804;51.118;17.058;2023-05-29T13:55:58;25.10;30.20
23271;DHT22;11804;51.118;17.058;2023-05-29T13:58:25;25.00;30.10
23271;DHT22;11804;51.118;17.058;2023-05-29T14:00:53;24.90;29.50
23271;DHT22;11804;51.118;17.058;2023-05-29T14:03:20;24.90;30.00
23271;DHT22;11804;51.118;17.058;2023-05-29T14:05:50;25.10;30.90
23271;DHT22;11804;51.118;17.058;2023-05-29T14:08:20;25.30;29.90
23271;DHT22;11804;51.118;17.058;2023-05-29T14:10:48;25.20;30.10
23271;DHT22;11804;51.118;17.058;2023-05-29T14:13:17;25.40;31.20
23271;DHT22;11804;51.118;17.058;2023-05-29T14:15:45;25.40;31.20
23271;DHT22;11804;51.118;17.058;2023-05-29T14:18:12;25.20;30.50
23271;DHT22;11804;51.118;17.058;2023-05-29T14:20:40;25.10;30.50
23271;DHT22;11804;51.118;17.058;2023-05-29T14:23:07;25.00;30.00
23271;DHT22;11804;51.118;17.058;2023-05-29T14:25:37;25.10;30.60
23271;DHT22;11804;51.118;17.058;2023-05-29T14:28:04;25.10;31.40
23271;DHT22;11804;51.118;17.058;2023-05-29T14:30:33;24.90;31.00
23271;DHT22;11804;51.118;17.058;2023-05-29T14:33:01;24.90;31.80
23271;DHT22;11804;51.118;17.058;2023-05-29T14:35:28;25.00;31.90
23271;DHT22;11804;51.118;17.058;2023-05-29T14:37:59;24.80;31.90
23271;DHT22;11804;51.118;17.058;2023-05-29T14:40:27;24.90;31.60
23271;DHT22;11804;51.118;17.058;2023-05-29T14:42:55;24.80;31.70
23271;DHT22;11804;51.118;17.058;2023-05-29T14:45:22;24.60;30.80
23271;DHT22;11804;51.118;17.058;2023-05-29T14:47:50;24.70;32.00
23271;DHT22;11804;51.118;17.058;2023-05-29T14:50:18;24.90;31.80
23271;DHT22;11804;51.118;17.058;2023-05-29T14:52:47;25.00;32.20
23271;DHT22;11804;51.118;17.058;2023-05-29T14:55:14;24.90;32.10
23271;DHT22;11804;51.118;17.058;2023-05-29T14:57:42;25.00;32.70
23271;DHT22;11804;51.118;17.058;2023-05-29T15:00:10;24.90;32.70
23271;DHT22;11804;51.118;17.058;2023-05-29T15:02:38;25.00;32.90
23271;DHT22;11804;51.118;17.058;2023-05-29T15:05:10;24.90;33.40
23271;DHT22;11804;51.118;17.058;2023-05-29T15:07:37;24.70;33.30
23271;DHT22;11804;51.118;17.058;2023-05-29T15:10:05;24.50;34.20
23271;DHT22;11804;51.118;17.058;2023-05-29T15:12:33;24.60;34.30
23271;DHT22;11804;51.118;17.058;2023-05-29T15:15:02;24.70;34.70
23271;DHT22;11804;51.118;17.058;2023-05-29T15:17:30;24.90;34.20
23271;DHT22;11804;51.118;17.058;2023-05-29T15:19:58;25.00;33.60
23271;DHT22;11804;51.118;17.058;2023-05-29T15:22:27;25.10;32.70
23271;DHT22;11804;51.118;17.058;2023-05-29T15:24:55;25.20;32.40
23271;DHT22;11804;51.118;17.058;2023-05-29T15:27:22;25.20;33.10
23271;DHT22;11804;51.118;17.058;2023-05-29T15:29:52;25.20;34.00
23271;DHT22;11804;51.118;17.058;2023-05-29T15:32:19;25.30;35.00
23271;DHT22;11804;51.118;17.058;2023-05-29T15:34:47;25.30;34.60
23271;DHT22;11804;51.118;17.058;2023-05-29T15:37:14;25.10;35.50
23271;DHT22;11804;51.118;17.058;2023-05-29T15:39:42;25.10;35.80
23271;DHT22;11804;51.118;17.058;2023-05-29T15:42:09;24.90;35.00
23271;DHT22;11804;51.118;17.058;2023-05-29T15:44:39;24.80;35.70